KSLC/SLC METAR and TAF weather

Enter ICAO airport designator
Station Type Date Time Source
KSLC METAR 2022/06/25 22:54 UTC NOAA

KSLC 252254Z 33011G17KT 10SM FEW090 FEW160 31/01 A3013 RMK AO2 SLP147 T03110006


Station Type Date Time Source
KSLC Decoded METAR 2022/06/25 22:54 UTC NOAA

SALT LAKE CITY INTERNATIONAL AIRPORT , UT, United States (KSLC) 40-47N 111-58W 1286M
Jun 25, 2022 - 06:54 PM EDT / 2022.06.25 2254 UTC
Wind: from the NNW (330 degrees) at 13 MPH (11 KT) gusting to 20 MPH (17 KT):0
Visibility: 10 mile(s):0
Sky conditions: mostly clear
Temperature: 88.0 F (31.1 C)
Dew Point: 33.1 F (0.6 C)
Relative Humidity: 14%
Pressure (altimeter): 30.13 in. Hg (1020 hPa)
ob: KSLC 252254Z 33011G17KT 10SM FEW090 FEW160 31/01 A3013 RMK AO2 SLP147 T03110006
cycle: 23

Station Type Date Time Source
KSLC TAF 2022/06/25 21:33 UTC NOAA

TAF
AMD KSLC 252030Z 2521/2624 33010G18KT P6SM SKC
FM260500 15006KT P6SM SKC
FM261700 34006KT P6SM FEW150

Example: see airport list